createdAt,value
2018-09-15T00:01:09.049Z,16.00
2018-09-15T00:03:37.445Z,16.00
2018-09-15T00:06:05.963Z,16.10
2018-09-15T00:08:34.385Z,16.00
2018-09-15T00:11:02.940Z,16.10
2018-09-15T00:13:31.484Z,16.10
2018-09-15T00:16:00.084Z,16.10
2018-09-15T00:18:28.518Z,16.00
2018-09-15T00:20:56.923Z,15.90
2018-09-15T00:23:25.317Z,15.90
2018-09-15T00:25:53.761Z,16.00
2018-09-15T00:28:22.468Z,15.90
2018-09-15T00:30:50.924Z,15.80
2018-09-15T00:33:19.373Z,15.70
2018-09-15T00:35:47.805Z,15.70
2018-09-15T00:38:16.188Z,15.70
2018-09-15T00:40:44.644Z,15.70
2018-09-15T00:43:13.132Z,15.80
2018-09-15T00:45:41.531Z,15.70
2018-09-15T00:48:09.933Z,15.70
2018-09-15T00:50:38.492Z,15.70
2018-09-15T00:53:06.970Z,15.70
2018-09-15T00:55:35.340Z,15.80
2018-09-15T00:58:03.752Z,15.70
2018-09-15T01:00:32.191Z,15.70
2018-09-15T01:03:00.583Z,15.70
2018-09-15T01:05:29.192Z,15.60
2018-09-15T01:07:57.658Z,15.60
2018-09-15T01:10:26.581Z,15.60
2018-09-15T01:12:55.131Z,15.60
2018-09-15T01:15:23.553Z,15.50
2018-09-15T01:17:51.953Z,15.50
2018-09-15T01:20:20.410Z,15.50
2018-09-15T01:22:48.869Z,15.50
2018-09-15T01:25:17.314Z,15.40
2018-09-15T01:27:45.769Z,15.40
2018-09-15T01:30:14.212Z,15.30
2018-09-15T01:32:42.675Z,15.20
2018-09-15T01:35:11.132Z,15.10
2018-09-15T01:37:39.652Z,15.10
2018-09-15T01:40:08.043Z,15.10
2018-09-15T01:42:36.533Z,15.00
2018-09-15T01:45:05.253Z,15.00
2018-09-15T01:47:33.708Z,14.80
2018-09-15T01:50:02.180Z,14.80
2018-09-15T01:52:31.536Z,14.70
2018-09-15T01:54:59.987Z,14.70
2018-09-15T01:57:28.596Z,14.70
2018-09-15T01:59:57.259Z,14.60
2018-09-15T02:02:25.638Z,14.50
2018-09-15T02:04:54.129Z,14.50
2018-09-15T02:07:22.681Z,14.40
2018-09-15T02:09:51.108Z,14.50
2018-09-15T02:12:19.500Z,14.40
2018-09-15T02:14:47.944Z,14.30
2018-09-15T02:17:16.478Z,14.30
2018-09-15T02:19:44.989Z,14.30
2018-09-15T02:22:13.643Z,14.30
2018-09-15T02:24:42.129Z,14.20
2018-09-15T02:27:10.760Z,14.20
2018-09-15T02:29:39.484Z,14.20
2018-09-15T02:32:08.189Z,14.10
2018-09-15T02:34:36.656Z,14.10
2018-09-15T02:37:05.084Z,14.00
2018-09-15T02:39:33.509Z,14.00
2018-09-15T02:42:01.976Z,14.00
2018-09-15T02:44:30.377Z,14.00
2018-09-15T02:46:58.805Z,14.00
2018-09-15T02:49:27.307Z,14.00
2018-09-15T02:51:55.739Z,14.00
2018-09-15T02:54:24.160Z,13.90
2018-09-15T02:56:52.565Z,13.90
2018-09-15T02:59:20.956Z,14.00
2018-09-15T03:01:49.440Z,13.90
2018-09-15T03:04:17.882Z,13.80
2018-09-15T03:06:46.337Z,13.90
2018-09-15T03:09:14.829Z,13.90
2018-09-15T03:11:43.401Z,13.80
2018-09-15T03:14:11.820Z,13.80
2018-09-15T03:16:40.386Z,13.70
2018-09-15T03:19:08.920Z,13.70
2018-09-15T03:21:37.366Z,13.70
2018-09-15T03:24:05.796Z,13.70
2018-09-15T03:26:34.277Z,13.70
2018-09-15T03:29:02.669Z,13.70
2018-09-15T03:31:31.140Z,13.60
2018-09-15T03:33:59.540Z,13.60
2018-09-15T03:36:27.947Z,13.60
2018-09-15T03:38:56.346Z,13.60
2018-09-15T03:41:24.802Z,13.50
2018-09-15T03:43:53.403Z,13.60
2018-09-15T03:46:21.844Z,13.60
2018-09-15T03:48:50.278Z,13.50
2018-09-15T03:51:18.705Z,13.50
2018-09-15T03:53:47.110Z,13.50
2018-09-15T03:56:15.541Z,13.40
2018-09-15T03:58:43.920Z,13.30
2018-09-15T04:01:12.326Z,13.40
2018-09-15T04:03:40.755Z,13.40
2018-09-15T04:06:09.169Z,13.30
2018-09-15T04:08:37.541Z,13.50
2018-09-15T04:11:05.991Z,13.40
2018-09-15T04:13:34.374Z,13.40
2018-09-15T04:16:02.800Z,13.40
2018-09-15T04:18:31.184Z,13.50
2018-09-15T04:20:59.762Z,13.50
2018-09-15T04:23:28.161Z,13.40
2018-09-15T04:25:56.585Z,13.30
2018-09-15T04:28:25.099Z,13.40
2018-09-15T04:30:53.541Z,13.40
2018-09-15T04:33:21.925Z,13.40
2018-09-15T04:35:50.343Z,13.50
2018-09-15T04:38:18.753Z,13.70
2018-09-15T04:40:47.220Z,13.80
2018-09-15T04:43:15.581Z,13.80
2018-09-15T04:45:43.980Z,13.80
2018-09-15T04:48:12.402Z,13.80
2018-09-15T04:50:40.828Z,13.70
2018-09-15T04:53:09.189Z,13.80
2018-09-15T04:55:37.585Z,13.70
2018-09-15T04:58:06.046Z,13.80
2018-09-15T05:00:34.435Z,13.80
2018-09-15T05:03:02.865Z,13.80
2018-09-15T05:05:31.508Z,13.80
2018-09-15T05:07:59.985Z,13.70
2018-09-15T05:10:28.457Z,13.80
2018-09-15T05:12:56.963Z,13.90
2018-09-15T05:15:25.316Z,13.80
2018-09-15T05:17:53.805Z,13.80
2018-09-15T05:20:22.204Z,13.70
2018-09-15T05:22:50.675Z,13.70
2018-09-15T05:25:19.051Z,13.80
2018-09-15T05:27:47.481Z,13.70
2018-09-15T05:30:15.913Z,13.70
2018-09-15T05:32:44.349Z,13.70
2018-09-15T05:35:12.785Z,13.60
2018-09-15T05:37:41.434Z,13.40
2018-09-15T05:40:09.881Z,13.30
2018-09-15T05:42:38.360Z,13.20
2018-09-15T05:45:06.813Z,13.20
2018-09-15T05:47:35.222Z,13.10
2018-09-15T05:50:03.674Z,13.10
2018-09-15T05:52:32.308Z,13.10
2018-09-15T05:55:00.701Z,13.10
2018-09-15T05:57:29.116Z,13.10
2018-09-15T05:59:57.509Z,13.10
2018-09-15T06:02:25.911Z,13.00
2018-09-15T06:04:54.321Z,13.00
2018-09-15T06:07:22.720Z,13.00
2018-09-15T06:09:51.120Z,13.00
2018-09-15T06:12:19.548Z,13.00
2018-09-15T06:14:47.936Z,13.10
2018-09-15T06:17:16.344Z,13.10
2018-09-15T06:19:44.779Z,13.10
2018-09-15T06:22:13.180Z,13.20
2018-09-15T06:24:41.585Z,13.20
2018-09-15T06:27:10.027Z,13.30
2018-09-15T06:29:38.461Z,13.30
2018-09-15T06:32:07.060Z,13.40
2018-09-15T06:34:35.495Z,13.40
2018-09-15T06:37:03.944Z,13.50
2018-09-15T06:39:32.329Z,13.50
2018-09-15T06:42:00.804Z,13.50
2018-09-15T06:44:29.230Z,13.60
2018-09-15T06:46:57.694Z,13.60
2018-09-15T06:49:26.134Z,13.70
2018-09-15T06:51:54.593Z,13.70
2018-09-15T06:54:23.066Z,13.70
2018-09-15T06:56:51.456Z,13.80
2018-09-15T06:59:19.875Z,13.90
2018-09-15T07:01:48.303Z,14.00
2018-09-15T07:04:16.740Z,14.10
2018-09-15T07:06:45.182Z,14.30
2018-09-15T07:09:14.521Z,14.60
2018-09-15T07:11:42.953Z,14.90
2018-09-15T07:14:11.545Z,15.20
2018-09-15T07:16:40.421Z,15.40
2018-09-15T07:19:09.356Z,15.50
2018-09-15T07:21:37.807Z,15.60
2018-09-15T07:24:06.288Z,15.60
2018-09-15T07:26:34.731Z,15.80
2018-09-15T07:29:03.155Z,15.90
2018-09-15T07:31:31.660Z,16.00
2018-09-15T07:34:00.092Z,16.10
2018-09-15T07:36:28.504Z,16.00
2018-09-15T07:38:56.921Z,16.00
2018-09-15T07:41:25.323Z,15.80
2018-09-15T07:43:53.837Z,15.80
2018-09-15T07:46:22.332Z,16.10
2018-09-15T07:48:50.749Z,16.20
2018-09-15T07:51:19.146Z,16.50
2018-09-15T07:53:47.663Z,16.50
2018-09-15T07:56:16.092Z,16.70
2018-09-15T07:58:44.539Z,16.80
2018-09-15T08:01:12.987Z,17.00
2018-09-15T08:03:41.445Z,17.00
2018-09-15T08:06:09.853Z,16.90
2018-09-15T08:08:38.332Z,16.90
2018-09-15T08:11:07.032Z,17.00
2018-09-15T08:13:35.447Z,17.10
2018-09-15T08:16:04.171Z,17.20
2018-09-15T08:18:32.946Z,17.00
2018-09-15T08:21:01.548Z,16.90
2018-09-15T08:23:29.993Z,16.90
2018-09-15T08:25:58.631Z,16.70
2018-09-15T08:28:27.021Z,16.80
2018-09-15T08:30:55.470Z,16.80
2018-09-15T08:33:24.044Z,16.90
2018-09-15T08:35:58.061Z,17.20
2018-09-15T08:38:26.855Z,17.50
2018-09-15T08:40:55.367Z,17.60
2018-09-15T08:43:23.760Z,18.10
2018-09-15T08:45:53.796Z,18.50
2018-09-15T08:48:22.226Z,18.40
2018-09-15T08:50:50.747Z,18.10
2018-09-15T08:53:19.196Z,18.20
2018-09-15T08:55:47.655Z,18.30
2018-09-15T08:58:16.076Z,18.40
2018-09-15T09:00:44.557Z,18.50
2018-09-15T09:03:12.959Z,18.80
2018-09-15T09:05:41.375Z,19.00
2018-09-15T09:08:09.783Z,19.40
2018-09-15T09:10:38.283Z,19.80
2018-09-15T09:13:06.778Z,19.60
2018-09-15T09:15:35.213Z,19.30
2018-09-15T09:18:04.188Z,19.20
2018-09-15T09:20:32.654Z,19.30
2018-09-15T09:23:01.062Z,19.40
2018-09-15T09:25:30.041Z,19.40
2018-09-15T09:27:58.614Z,19.40
2018-09-15T09:30:27.013Z,19.40
2018-09-15T09:32:55.408Z,19.20
2018-09-15T09:35:23.844Z,19.10
2018-09-15T09:37:52.286Z,19.10
2018-09-15T09:40:20.747Z,19.20
2018-09-15T09:42:49.344Z,19.40
2018-09-15T09:45:17.777Z,19.10
2018-09-15T09:47:46.229Z,18.90
2018-09-15T09:50:14.742Z,18.70
2018-09-15T09:52:43.152Z,18.60
2018-09-15T09:55:12.873Z,18.70
2018-09-15T09:57:42.613Z,18.70
2018-09-15T10:00:16.272Z,18.70
2018-09-15T10:02:45.876Z,18.50
2018-09-15T10:05:14.327Z,18.70
2018-09-15T10:07:42.749Z,19.10
2018-09-15T10:10:11.164Z,19.50
2018-09-15T10:12:39.633Z,19.80
2018-09-15T10:15:08.190Z,19.90
2018-09-15T10:17:36.608Z,20.00
2018-09-15T10:20:05.062Z,19.50
2018-09-15T10:22:33.606Z,19.20
2018-09-15T10:25:02.009Z,18.80
2018-09-15T10:27:30.464Z,18.60
2018-09-15T10:29:59.096Z,18.50
2018-09-15T10:32:27.539Z,18.50
2018-09-15T10:34:56.021Z,18.50
2018-09-15T10:37:24.512Z,16.00
2018-09-15T10:39:52.885Z,18.80
2018-09-15T10:42:21.309Z,19.00
2018-09-15T10:44:49.785Z,18.90
2018-09-15T10:47:18.229Z,18.90
2018-09-15T10:49:46.729Z,19.20
2018-09-15T10:52:15.265Z,19.60
2018-09-15T10:54:43.639Z,20.00
2018-09-15T10:57:12.052Z,20.10
2018-09-15T10:59:40.445Z,20.50
2018-09-15T11:02:12.808Z,20.70
2018-09-15T11:04:42.538Z,20.90
2018-09-15T11:07:10.989Z,20.90
2018-09-15T11:09:39.393Z,20.90
2018-09-15T11:12:07.872Z,20.70
2018-09-15T11:14:36.370Z,20.40
2018-09-15T11:17:05.050Z,20.40
2018-09-15T11:19:33.608Z,20.30
2018-09-15T11:22:02.746Z,20.50
2018-09-15T11:24:31.205Z,20.50
2018-09-15T11:26:59.652Z,20.70
2018-09-15T11:29:28.109Z,20.70
2018-09-15T11:31:56.656Z,20.90
2018-09-15T11:34:25.073Z,21.00
2018-09-15T11:36:53.534Z,21.00
2018-09-15T11:39:22.059Z,21.10
2018-09-15T11:41:50.511Z,18.80
2018-09-15T11:44:19.064Z,21.10
2018-09-15T11:46:47.528Z,20.70
2018-09-15T11:49:15.947Z,20.50
2018-09-15T11:51:44.401Z,20.20
2018-09-15T11:54:12.877Z,20.10
2018-09-15T11:56:41.379Z,20.40
2018-09-15T11:59:09.900Z,20.70
2018-09-15T12:01:38.535Z,20.90
2018-09-15T12:04:07.284Z,20.90
2018-09-15T12:06:35.736Z,21.10
2018-09-15T12:09:06.138Z,21.00
2018-09-15T12:11:34.576Z,21.10
2018-09-15T12:14:03.008Z,20.80
2018-09-15T12:16:31.424Z,20.80
2018-09-15T12:18:59.921Z,20.60
2018-09-15T12:21:28.503Z,20.60
2018-09-15T12:23:56.884Z,20.70
2018-09-15T12:26:25.282Z,20.40
2018-09-15T12:28:54.168Z,20.30
2018-09-15T12:31:22.614Z,20.30
2018-09-15T12:33:51.325Z,20.30
2018-09-15T12:36:19.763Z,20.20
2018-09-15T12:38:48.363Z,20.40
2018-09-15T12:41:16.956Z,20.50
2018-09-15T12:43:45.545Z,20.50
2018-09-15T12:46:14.148Z,20.50
2018-09-15T12:48:42.568Z,20.60
2018-09-15T12:51:11.336Z,20.60
2018-09-15T12:53:39.767Z,20.40
2018-09-15T12:56:08.216Z,20.40
2018-09-15T12:58:36.657Z,20.40
2018-09-15T13:01:05.123Z,20.60
2018-09-15T13:03:33.585Z,20.80
2018-09-15T13:06:02.026Z,21.10
2018-09-15T13:08:30.681Z,21.10
2018-09-15T13:10:59.089Z,20.90
2018-09-15T13:13:27.509Z,20.70
2018-09-15T13:15:56.141Z,20.80
2018-09-15T13:18:24.606Z,20.60
2018-09-15T13:20:53.535Z,20.50
2018-09-15T13:23:22.078Z,20.30
2018-09-15T13:25:50.558Z,20.40
2018-09-15T13:28:19.112Z,20.50
2018-09-15T13:30:47.554Z,20.60
2018-09-15T13:33:15.968Z,20.60
2018-09-15T13:35:44.448Z,20.60
2018-09-15T13:38:12.871Z,20.70
2018-09-15T13:40:41.266Z,20.70
2018-09-15T13:43:09.745Z,20.80
2018-09-15T13:45:38.316Z,20.80
2018-09-15T13:48:07.020Z,20.80
2018-09-15T13:50:35.589Z,20.80
2018-09-15T13:53:04.055Z,20.90
2018-09-15T13:55:32.720Z,20.90
2018-09-15T13:58:01.196Z,20.90
2018-09-15T14:00:29.638Z,20.90
2018-09-15T14:02:58.078Z,20.70
2018-09-15T14:05:26.516Z,20.70
2018-09-15T14:07:55.000Z,20.70
2018-09-15T14:10:23.359Z,20.70
2018-09-15T14:12:51.794Z,20.70
2018-09-15T14:15:20.189Z,20.70
2018-09-15T14:17:48.575Z,20.70
2018-09-15T14:20:17.009Z,20.60
2018-09-15T14:22:45.424Z,20.40
2018-09-15T14:25:13.925Z,20.50
2018-09-15T14:27:42.516Z,20.40
2018-09-15T14:30:10.996Z,20.50
2018-09-15T14:32:39.408Z,20.50
2018-09-15T14:35:07.865Z,20.50
2018-09-15T14:37:36.316Z,20.60
2018-09-15T14:40:04.911Z,20.60
2018-09-15T14:42:33.478Z,20.60
2018-09-15T14:45:02.135Z,20.60
2018-09-15T14:47:30.584Z,20.70
2018-09-15T14:49:59.067Z,20.70
2018-09-15T14:52:27.468Z,20.70
2018-09-15T14:54:55.924Z,20.70
2018-09-15T14:57:24.800Z,20.90
2018-09-15T14:59:53.228Z,21.00
2018-09-15T15:02:21.628Z,21.20
2018-09-15T15:04:50.162Z,21.30
2018-09-15T15:07:18.654Z,21.40
2018-09-15T15:09:47.049Z,21.50
2018-09-15T15:12:15.560Z,21.50
2018-09-15T15:14:43.988Z,21.40
2018-09-15T15:17:12.389Z,21.30
2018-09-15T15:19:40.835Z,21.20
2018-09-15T15:22:09.288Z,21.20
2018-09-15T15:24:37.727Z,21.30
2018-09-15T15:27:06.253Z,21.40
2018-09-15T15:29:34.707Z,21.30
2018-09-15T15:32:03.226Z,21.20
2018-09-15T15:34:31.925Z,21.10
2018-09-15T15:37:00.439Z,21.10
2018-09-15T15:39:29.335Z,21.10
2018-09-15T15:41:57.893Z,21.10
2018-09-15T15:44:26.244Z,20.90
2018-09-15T15:46:54.688Z,20.90
2018-09-15T15:49:23.208Z,21.00
2018-09-15T15:51:51.688Z,21.10
2018-09-15T15:54:20.141Z,21.00
2018-09-15T15:56:48.650Z,21.00
2018-09-15T15:59:17.181Z,20.90
2018-09-15T16:01:45.591Z,20.90
2018-09-15T16:04:13.969Z,20.60
2018-09-15T16:06:42.389Z,20.60
2018-09-15T16:09:10.801Z,20.40
2018-09-15T16:11:39.229Z,20.20
2018-09-15T16:14:07.661Z,20.00
2018-09-15T16:16:36.069Z,20.00
2018-09-15T16:19:04.602Z,19.80
2018-09-15T16:21:32.980Z,19.70
2018-09-15T16:24:01.520Z,19.70
2018-09-15T16:26:29.984Z,19.70
2018-09-15T16:28:58.448Z,19.60
2018-09-15T16:31:26.922Z,19.60
2018-09-15T16:33:55.332Z,19.70
2018-09-15T16:36:23.761Z,19.70
2018-09-15T16:38:52.242Z,19.60
2018-09-15T16:41:20.697Z,19.60
2018-09-15T16:43:49.200Z,19.50
2018-09-15T16:46:17.728Z,19.40
2018-09-15T16:48:48.037Z,19.50
2018-09-15T16:51:16.535Z,19.50
2018-09-15T16:53:44.997Z,19.50
2018-09-15T16:56:13.538Z,19.40
2018-09-15T16:58:41.988Z,19.30
2018-09-15T17:01:10.532Z,19.20
2018-09-15T17:03:39.058Z,19.10
2018-09-15T17:06:07.680Z,19.10
2018-09-15T17:08:36.155Z,19.00
2018-09-15T17:11:04.807Z,18.90
2018-09-15T17:13:33.293Z,18.80
2018-09-15T17:16:01.905Z,18.70
2018-09-15T17:18:31.379Z,18.60
2018-09-15T17:20:59.991Z,18.50
2018-09-15T17:23:28.486Z,18.40
2018-09-15T17:25:57.170Z,18.40
2018-09-15T17:28:25.576Z,18.30
2018-09-15T17:30:54.444Z,18.20
2018-09-15T17:33:22.881Z,18.20
2018-09-15T17:35:51.421Z,18.10
2018-09-15T17:38:19.857Z,18.00
2018-09-15T17:40:48.284Z,17.80
2018-09-15T17:43:16.688Z,17.80
2018-09-15T17:45:45.206Z,17.80
2018-09-15T17:48:13.666Z,17.70
2018-09-15T17:50:42.198Z,17.60
2018-09-15T17:53:10.740Z,17.50
2018-09-15T17:55:39.156Z,17.50
2018-09-15T17:58:08.127Z,17.40
2018-09-15T18:00:36.575Z,17.40
2018-09-15T18:03:05.110Z,17.30
2018-09-15T18:05:33.560Z,17.30
2018-09-15T18:08:02.085Z,17.20
2018-09-15T18:10:30.500Z,17.30
2018-09-15T18:12:58.968Z,17.30
2018-09-15T18:15:27.433Z,17.20
2018-09-15T18:17:55.916Z,17.10
2018-09-15T18:20:24.367Z,17.00
2018-09-15T18:22:52.803Z,17.00
2018-09-15T18:25:21.214Z,16.90
2018-09-15T18:27:49.831Z,16.80
2018-09-15T18:30:18.261Z,16.70
2018-09-15T18:32:46.732Z,16.70
2018-09-15T18:35:15.216Z,16.50
2018-09-15T18:37:43.668Z,16.50
2018-09-15T18:40:12.084Z,16.40
2018-09-15T18:42:40.527Z,16.30
2018-09-15T18:45:08.973Z,16.20
2018-09-15T18:47:37.485Z,16.20
2018-09-15T18:50:06.181Z,16.10
2018-09-15T18:52:34.624Z,16.00
2018-09-15T18:55:03.276Z,15.90
2018-09-15T18:57:31.835Z,15.90
2018-09-15T19:00:00.344Z,15.80
2018-09-15T19:02:28.764Z,15.70
2018-09-15T19:04:57.268Z,15.70
2018-09-15T19:07:25.715Z,15.60
2018-09-15T19:09:54.461Z,15.70
2018-09-15T19:12:22.888Z,15.60
2018-09-15T19:14:51.454Z,15.60
2018-09-15T19:17:20.044Z,15.50
2018-09-15T19:19:48.533Z,15.50
2018-09-15T19:22:16.968Z,15.50
2018-09-15T19:24:45.400Z,15.40
2018-09-15T19:27:13.902Z,15.40
2018-09-15T19:29:42.353Z,15.40
2018-09-15T19:32:10.888Z,15.40
2018-09-15T19:34:39.385Z,15.40
2018-09-15T19:37:07.916Z,15.50
2018-09-15T19:39:36.416Z,15.50
2018-09-15T19:42:04.870Z,15.50
2018-09-15T19:44:33.438Z,15.50
2018-09-15T19:47:01.858Z,15.40
2018-09-15T19:49:30.357Z,15.40
2018-09-15T19:51:58.776Z,15.40
2018-09-15T19:54:27.270Z,15.30
2018-09-15T19:56:55.921Z,15.30
2018-09-15T19:59:24.536Z,15.30
2018-09-15T20:01:52.953Z,15.20
2018-09-15T20:04:21.400Z,15.20
2018-09-15T20:06:49.862Z,15.10
2018-09-15T20:09:18.377Z,15.10
2018-09-15T20:11:46.813Z,15.10
2018-09-15T20:14:15.263Z,15.10
2018-09-15T20:16:42.558Z,15.10
2018-09-15T20:19:09.887Z,15.00
2018-09-15T20:21:37.156Z,15.00
2018-09-15T20:24:05.679Z,14.90
2018-09-15T20:26:34.545Z,14.90
2018-09-15T20:29:03.053Z,14.90
2018-09-15T20:31:31.517Z,14.90
2018-09-15T20:34:00.041Z,14.90
2018-09-15T20:36:28.637Z,14.90
2018-09-15T20:38:57.276Z,14.80
2018-09-15T20:41:25.713Z,14.80
2018-09-15T20:43:54.121Z,14.90
2018-09-15T20:46:22.574Z,14.90
2018-09-15T20:48:50.970Z,14.80
2018-09-15T20:51:19.641Z,14.80
2018-09-15T20:53:48.115Z,14.80
2018-09-15T20:56:16.664Z,14.80
2018-09-15T20:58:45.148Z,14.80
2018-09-15T21:01:13.585Z,14.70
2018-09-15T21:03:41.998Z,14.60
2018-09-15T21:06:10.443Z,14.60
2018-09-15T21:08:38.875Z,14.50
2018-09-15T21:11:07.297Z,14.50
2018-09-15T21:13:35.742Z,14.40
2018-09-15T21:16:04.243Z,14.30
2018-09-15T21:18:32.597Z,14.20
2018-09-15T21:21:01.153Z,14.20
2018-09-15T21:23:29.557Z,14.10
2018-09-15T21:25:58.139Z,14.10
2018-09-15T21:28:26.632Z,14.00
2018-09-15T21:30:55.177Z,13.90
2018-09-15T21:33:23.620Z,13.90
2018-09-15T21:35:52.097Z,13.90
2018-09-15T21:38:20.866Z,13.80
2018-09-15T21:40:49.352Z,13.80
2018-09-15T21:43:18.817Z,13.80
2018-09-15T21:45:47.205Z,13.70
2018-09-15T21:48:15.579Z,13.70
2018-09-15T21:50:44.007Z,13.70
2018-09-15T21:53:12.468Z,13.70
2018-09-15T21:55:40.976Z,13.70
2018-09-15T21:58:09.402Z,13.60
2018-09-15T22:00:37.952Z,13.60
2018-09-15T22:03:06.805Z,13.60
2018-09-15T22:05:35.291Z,13.50
2018-09-15T22:08:03.781Z,13.50
2018-09-15T22:10:32.296Z,13.50
2018-09-15T22:13:00.777Z,13.50
2018-09-15T22:15:29.248Z,13.50
2018-09-15T22:17:58.900Z,13.40
2018-09-15T22:20:27.812Z,13.40
2018-09-15T22:22:56.303Z,13.30
2018-09-15T22:25:24.836Z,13.30
2018-09-15T22:27:53.222Z,13.20
2018-09-15T22:30:21.639Z,13.20
2018-09-15T22:32:50.928Z,13.20
2018-09-15T22:35:19.514Z,13.10
2018-09-15T22:37:48.017Z,13.10
2018-09-15T22:40:16.396Z,13.10
2018-09-15T22:42:44.792Z,13.00
2018-09-15T22:45:13.236Z,13.00
2018-09-15T22:47:41.703Z,13.00
2018-09-15T22:50:10.320Z,12.90
2018-09-15T22:52:38.761Z,12.90
2018-09-15T22:55:07.340Z,12.90
2018-09-15T22:57:35.805Z,12.80
2018-09-15T23:00:04.576Z,12.80
2018-09-15T23:02:33.039Z,12.80
2018-09-15T23:05:01.472Z,12.80
2018-09-15T23:07:29.899Z,12.70
2018-09-15T23:09:58.304Z,12.80
2018-09-15T23:12:26.735Z,12.70
2018-09-15T23:14:55.205Z,12.70
2018-09-15T23:17:23.604Z,12.70
2018-09-15T23:19:52.044Z,12.70
2018-09-15T23:22:20.512Z,12.70
2018-09-15T23:24:49.086Z,12.70
2018-09-15T23:27:19.288Z,12.60
2018-09-15T23:29:47.818Z,12.60
2018-09-15T23:32:16.526Z,12.60
2018-09-15T23:34:44.983Z,12.60
2018-09-15T23:37:13.400Z,12.50
2018-09-15T23:39:42.061Z,12.50
2018-09-15T23:42:10.518Z,12.50
2018-09-15T23:44:38.960Z,12.50
2018-09-15T23:47:07.344Z,12.50
2018-09-15T23:49:35.751Z,12.40
2018-09-15T23:52:04.139Z,12.40
2018-09-15T23:54:32.556Z,12.40
2018-09-15T23:57:00.917Z,12.30
2018-09-15T23:59:29.364Z,12.30
